sensor_id;sensor_type;location;lat;lon;timestamp;pressure;altitude;pressure_sealevel;temperature;humidity
8641;BME280;4358;42.100;25.222;2024-03-22T00:00:34;100294.63;;;7.17;100.00
8641;BME280;4358;42.100;25.222;2024-03-22T00:03:03;100300.47;;;7.23;100.00
8641;BME280;4358;42.100;25.222;2024-03-22T00:05:29;100305.19;;;7.17;100.00
8641;BME280;4358;42.100;25.222;2024-03-22T00:07:56;100306.75;;;7.21;100.00
8641;BME280;4358;42.100;25.222;2024-03-22T00:10:22;100303.69;;;7.30;100.00
8641;BME280;4358;42.100;25.222;2024-03-22T00:12:49;100304.47;;;7.32;100.00
8641;BME280;4358;42.100;25.222;2024-03-22T00:15:15;100286.75;;;7.34;100.00
8641;BME280;4358;42.100;25.222;2024-03-22T00:17:43;100291.91;;;7.37;100.00
8641;BME280;4358;42.100;25.222;2024-03-22T00:20:10;100288.19;;;7.41;100.00
8641;BME280;4358;42.100;25.222;2024-03-22T00:22:37;100289.91;;;7.42;100.00
8641;BME280;4358;42.100;25.222;2024-03-22T00:25:04;100291.47;;;7.46;100.00
8641;BME280;4358;42.100;25.222;2024-03-22T00:27:31;100291.47;;;7.46;100.00
8641;BME280;4358;42.100;25.222;2024-03-22T00:29:57;100295.19;;;7.42;100.00
8641;BME280;4358;42.100;25.222;2024-03-22T00:32:24;100293.19;;;7.47;100.00
8641;BME280;4358;42.100;25.222;2024-03-22T00:34:50;100293.66;;;7.55;100.00
8641;BME280;4358;42.100;25.222;2024-03-22T00:37:18;100282.50;;;7.68;100.00
8641;BME280;4358;42.100;25.222;2024-03-22T00:39:44;100291.97;;;7.72;100.00
8641;BME280;4358;42.100;25.222;2024-03-22T00:42:10;100293.41;;;7.79;100.00
8641;BME280;4358;42.100;25.222;2024-03-22T00:44:36;100294.69;;;7.70;100.00
8641;BME280;4358;42.100;25.222;2024-03-22T00:47:03;100288.41;;;7.73;100.00
8641;BME280;4358;42.100;25.222;2024-03-22T00:49:32;100295.41;;;7.74;100.00
8641;BME280;4358;42.100;25.222;2024-03-22T00:52:00;100296.66;;;7.84;100.00
8641;BME280;4358;42.100;25.222;2024-03-22T00:54:28;100300.06;;;7.86;100.00
8641;BME280;4358;42.100;25.222;2024-03-22T00:56:54;100295.75;;;7.85;100.00
8641;BME280;4358;42.100;25.222;2024-03-22T00:59:20;100292.16;;;7.86;100.00
8641;BME280;4358;42.100;25.222;2024-03-22T01:01:46;100293.09;;;7.85;100.00
8641;BME280;4358;42.100;25.222;2024-03-22T01:04:13;100297.75;;;7.80;100.00
8641;BME280;4358;42.100;25.222;2024-03-22T01:06:39;100290.75;;;7.79;100.00
8641;BME280;4358;42.100;25.222;2024-03-22T01:09:05;100295.19;;;7.78;100.00
8641;BME280;4358;42.100;25.222;2024-03-22T01:11:33;100298.53;;;7.82;100.00
8641;BME280;4358;42.100;25.222;2024-03-22T01:13:59;100290.13;;;7.74;100.00
8641;BME280;4358;42.100;25.222;2024-03-22T01:16:25;100297.09;;;7.75;100.00
8641;BME280;4358;42.100;25.222;2024-03-22T01:18:52;100292.66;;;7.75;100.00
8641;BME280;4358;42.100;25.222;2024-03-22T01:21:18;100293.41;;;7.79;100.00
8641;BME280;4358;42.100;25.222;2024-03-22T01:23:50;100296.16;;;7.76;100.00
8641;BME280;4358;42.100;25.222;2024-03-22T01:26:16;100296.63;;;7.66;100.00
8641;BME280;4358;42.100;25.222;2024-03-22T01:28:44;100296.44;;;7.52;100.00
8641;BME280;4358;42.100;25.222;2024-03-22T01:31:10;100305.25;;;7.34;100.00
8641;BME280;4358;42.100;25.222;2024-03-22T01:33:37;100303.59;;;7.13;100.00
8641;BME280;4358;42.100;25.222;2024-03-22T01:36:03;100302.56;;;6.59;100.00
8641;BME280;4358;42.100;25.222;2024-03-22T01:38:30;100307.97;;;6.56;100.00
8641;BME280;4358;42.100;25.222;2024-03-22T01:40:56;100310.66;;;6.55;100.00
8641;BME280;4358;42.100;25.222;2024-03-22T01:43:23;100308.78;;;6.38;100.00
8641;BME280;4358;42.100;25.222;2024-03-22T01:45:50;100310.09;;;6.28;100.00
8641;BME280;4358;42.100;25.222;2024-03-22T01:48:17;100310.88;;;6.30;100.00
8641;BME280;4358;42.100;25.222;2024-03-22T01:50:43;100316.53;;;6.21;100.00
8641;BME280;4358;42.100;25.222;2024-03-22T01:53:10;100317.06;;;6.09;100.00
8641;BME280;4358;42.100;25.222;2024-03-22T01:55:36;100314.50;;;5.85;100.00
8641;BME280;4358;42.100;25.222;2024-03-22T01:58:03;100318.66;;;5.69;100.00
8641;BME280;4358;42.100;25.222;2024-03-22T02:00:29;100317.38;;;5.58;100.00
8641;BME280;4358;42.100;25.222;2024-03-22T02:02:58;100323.94;;;5.47;100.00
8641;BME280;4358;42.100;25.222;2024-03-22T02:05:24;100329.63;;;5.37;100.00
8641;BME280;4358;42.100;25.222;2024-03-22T02:07:50;100327.56;;;4.98;100.00
8641;BME280;4358;42.100;25.222;2024-03-22T02:10:17;100324.63;;;5.07;100.00
8641;BME280;4358;42.100;25.222;2024-03-22T02:12:43;100327.81;;;5.16;100.00
8641;BME280;4358;42.100;25.222;2024-03-22T02:15:09;100326.00;;;5.18;100.00
8641;BME280;4358;42.100;25.222;2024-03-22T02:17:36;100329.41;;;5.20;100.00
8641;BME280;4358;42.100;25.222;2024-03-22T02:20:04;100329.13;;;5.04;100.00
8641;BME280;4358;42.100;25.222;2024-03-22T02:22:31;100325.44;;;5.08;100.00
8641;BME280;4358;42.100;25.222;2024-03-22T02:24:58;100328.25;;;5.03;100.00
8641;BME280;4358;42.100;25.222;2024-03-22T02:27:25;100333.53;;;5.03;100.00
8641;BME280;4358;42.100;25.222;2024-03-22T02:29:51;100333.75;;;4.97;100.00
8641;BME280;4358;42.100;25.222;2024-03-22T02:32:18;100335.47;;;4.98;100.00
8641;BME280;4358;42.100;25.222;2024-03-22T02:34:44;100327.03;;;4.90;100.00
8641;BME280;4358;42.100;25.222;2024-03-22T02:37:10;100343.72;;;4.89;100.00
8641;BME280;4358;42.100;25.222;2024-03-22T02:39:37;100344.53;;;4.91;100.00
8641;BME280;4358;42.100;25.222;2024-03-22T02:42:05;100340.63;;;5.01;100.00
8641;BME280;4358;42.100;25.222;2024-03-22T02:44:31;100340.47;;;5.06;100.00
8641;BME280;4358;42.100;25.222;2024-03-22T02:46:58;100342.09;;;5.08;100.00
8641;BME280;4358;42.100;25.222;2024-03-22T02:49:25;100333.31;;;4.86;100.00
8641;BME280;4358;42.100;25.222;2024-03-22T02:51:51;100340.03;;;4.93;100.00
8641;BME280;4358;42.100;25.222;2024-03-22T02:54:17;100335.53;;;4.97;100.00
8641;BME280;4358;42.100;25.222;2024-03-22T02:56:44;100334.69;;;4.96;100.00
8641;BME280;4358;42.100;25.222;2024-03-22T02:59:11;100333.44;;;5.06;100.00
8641;BME280;4358;42.100;25.222;2024-03-22T03:01:38;100334.19;;;5.08;100.00
8641;BME280;4358;42.100;25.222;2024-03-22T03:04:04;100329.75;;;5.10;100.00
8641;BME280;4358;42.100;25.222;2024-03-22T03:06:31;100339.34;;;4.88;100.00
8641;BME280;4358;42.100;25.222;2024-03-22T03:08:56;100336.25;;;4.77;100.00
8641;BME280;4358;42.100;25.222;2024-03-22T03:11:23;100341.84;;;4.68;100.00
8641;BME280;4358;42.100;25.222;2024-03-22T03:13:49;100342.97;;;4.61;100.00
8641;BME280;4358;42.100;25.222;2024-03-22T03:16:17;100333.63;;;4.54;100.00
8641;BME280;4358;42.100;25.222;2024-03-22T03:18:43;100340.88;;;4.46;100.00
8641;BME280;4358;42.100;25.222;2024-03-22T03:21:10;100339.28;;;4.42;100.00
8641;BME280;4358;42.100;25.222;2024-03-22T03:23:36;100345.91;;;4.29;100.00
8641;BME280;4358;42.100;25.222;2024-03-22T03:26:02;100354.03;;;4.21;100.00
8641;BME280;4358;42.100;25.222;2024-03-22T03:28:28;100348.81;;;4.19;100.00
8641;BME280;4358;42.100;25.222;2024-03-22T03:30:55;100354.69;;;4.01;100.00
8641;BME280;4358;42.100;25.222;2024-03-22T03:33:22;100356.69;;;3.93;100.00
8641;BME280;4358;42.100;25.222;2024-03-22T03:35:49;100359.25;;;3.96;100.00
8641;BME280;4358;42.100;25.222;2024-03-22T03:38:15;100369.31;;;4.08;100.00
8641;BME280;4358;42.100;25.222;2024-03-22T03:40:42;100370.16;;;4.10;100.00
8641;BME280;4358;42.100;25.222;2024-03-22T03:43:07;100389.03;;;4.21;100.00
8641;BME280;4358;42.100;25.222;2024-03-22T03:45:36;100390.56;;;4.29;100.00
8641;BME280;4358;42.100;25.222;2024-03-22T03:48:02;100395.38;;;4.41;100.00
8641;BME280;4358;42.100;25.222;2024-03-22T03:50:30;100412.63;;;4.49;100.00
8641;BME280;4358;42.100;25.222;2024-03-22T03:52:56;100408.78;;;4.59;100.00
8641;BME280;4358;42.100;25.222;2024-03-22T03:55:23;100400.44;;;4.72;100.00
8641;BME280;4358;42.100;25.222;2024-03-22T03:57:49;100407.84;;;4.85;100.00
8641;BME280;4358;42.100;25.222;2024-03-22T04:00:18;100411.19;;;4.90;100.00
8641;BME280;4358;42.100;25.222;2024-03-22T04:02:43;100412.34;;;4.82;100.00
8641;BME280;4358;42.100;25.222;2024-03-22T04:05:10;100414.53;;;4.71;100.00
8641;BME280;4358;42.100;25.222;2024-03-22T04:07:37;100412.72;;;4.71;100.00
8641;BME280;4358;42.100;25.222;2024-03-22T04:10:05;100412.03;;;4.66;100.00
8641;BME280;4358;42.100;25.222;2024-03-22T04:12:31;100416.28;;;4.70;100.00
8641;BME280;4358;42.100;25.222;2024-03-22T04:14:58;100409.34;;;4.67;100.00
8641;BME280;4358;42.100;25.222;2024-03-22T04:17:24;100412.41;;;4.55;100.00
8641;BME280;4358;42.100;25.222;2024-03-22T04:19:50;100419.41;;;4.30;100.00
8641;BME280;4358;42.100;25.222;2024-03-22T04:22:17;100424.59;;;4.32;100.00
8641;BME280;4358;42.100;25.222;2024-03-22T04:24:45;100422.28;;;4.22;100.00
8641;BME280;4358;42.100;25.222;2024-03-22T04:27:11;100436.03;;;4.31;100.00
8641;BME280;4358;42.100;25.222;2024-03-22T04:29:38;100426.72;;;4.20;100.00
8641;BME280;4358;42.100;25.222;2024-03-22T04:32:04;100426.69;;;3.94;100.00
8641;BME280;4358;42.100;25.222;2024-03-22T04:34:30;100428.53;;;3.92;100.00
8641;BME280;4358;42.100;25.222;2024-03-22T04:36:56;100435.25;;;4.01;100.00
8641;BME280;4358;42.100;25.222;2024-03-22T04:39:23;100440.97;;;4.13;100.00
8641;BME280;4358;42.100;25.222;2024-03-22T04:41:52;100445.31;;;4.14;100.00
8641;BME280;4358;42.100;25.222;2024-03-22T04:44:19;100450.56;;;4.14;100.00
8641;BME280;4358;42.100;25.222;2024-03-22T04:46:45;100455.06;;;4.11;100.00
8641;BME280;4358;42.100;25.222;2024-03-22T04:49:11;100461.25;;;4.08;100.00
8641;BME280;4358;42.100;25.222;2024-03-22T04:51:38;100456.47;;;4.21;100.00
8641;BME280;4358;42.100;25.222;2024-03-22T04:54:04;100460.50;;;4.33;100.00
8641;BME280;4358;42.100;25.222;2024-03-22T04:56:31;100454.53;;;4.28;100.00
8641;BME280;4358;42.100;25.222;2024-03-22T04:58:58;100456.63;;;4.16;100.00
8641;BME280;4358;42.100;25.222;2024-03-22T05:01:24;100463.47;;;3.94;100.00
8641;BME280;4358;42.100;25.222;2024-03-22T05:03:50;100463.16;;;4.03;100.00
8641;BME280;4358;42.100;25.222;2024-03-22T05:06:17;100450.66;;;4.11;100.00
8641;BME280;4358;42.100;25.222;2024-03-22T05:08:44;100460.00;;;4.20;100.00
8641;BME280;4358;42.100;25.222;2024-03-22T05:11:10;100457.47;;;4.18;100.00
8641;BME280;4358;42.100;25.222;2024-03-22T05:13:36;100460.72;;;4.25;100.00
8641;BME280;4358;42.100;25.222;2024-03-22T05:16:06;100466.28;;;4.42;100.00
8641;BME280;4358;42.100;25.222;2024-03-22T05:18:32;100462.41;;;4.54;100.00
8641;BME280;4358;42.100;25.222;2024-03-22T05:20:59;100466.13;;;4.73;100.00
8641;BME280;4358;42.100;25.222;2024-03-22T05:23:25;100460.00;;;4.97;100.00
8641;BME280;4358;42.100;25.222;2024-03-22T05:25:51;100459.25;;;5.19;100.00
8641;BME280;4358;42.100;25.222;2024-03-22T05:28:17;100466.03;;;5.49;100.00
8641;BME280;4358;42.100;25.222;2024-03-22T05:30:44;100477.81;;;5.62;100.00
8641;BME280;4358;42.100;25.222;2024-03-22T05:33:12;100471.41;;;5.69;100.00
8641;BME280;4358;42.100;25.222;2024-03-22T05:35:39;100468.97;;;5.86;100.00
8641;BME280;4358;42.100;25.222;2024-03-22T05:38:06;100466.47;;;6.07;100.00
8641;BME280;4358;42.100;25.222;2024-03-22T05:40:36;100469.03;;;6.30;100.00
8641;BME280;4358;42.100;25.222;2024-03-22T05:43:03;100475.16;;;6.52;100.00
8641;BME280;4358;42.100;25.222;2024-03-22T05:45:30;100476.47;;;6.62;100.00
8641;BME280;4358;42.100;25.222;2024-03-22T05:47:55;100479.66;;;6.70;100.00
8641;BME280;4358;42.100;25.222;2024-03-22T05:50:24;100480.84;;;6.84;100.00
8641;BME280;4358;42.100;25.222;2024-03-22T05:52:49;100484.88;;;6.92;100.00
8641;BME280;4358;42.100;25.222;2024-03-22T05:55:17;100486.66;;;7.12;100.00
8641;BME280;4358;42.100;25.222;2024-03-22T05:57:43;100489.41;;;7.29;100.00
8641;BME280;4358;42.100;25.222;2024-03-22T06:00:10;100498.66;;;7.39;100.00
8641;BME280;4358;42.100;25.222;2024-03-22T06:02:38;100494.44;;;7.74;100.00
8641;BME280;4358;42.100;25.222;2024-03-22T06:05:05;100507.78;;;8.08;100.00
8641;BME280;4358;42.100;25.222;2024-03-22T06:07:33;100514.75;;;8.28;100.00
8641;BME280;4358;42.100;25.222;2024-03-22T06:10:07;100506.53;;;8.53;100.00
8641;BME280;4358;42.100;25.222;2024-03-22T06:12:33;100511.91;;;8.52;100.00
8641;BME280;4358;42.100;25.222;2024-03-22T06:15:00;100514.88;;;8.63;100.00
8641;BME280;4358;42.100;25.222;2024-03-22T06:17:26;100519.72;;;8.72;100.00
8641;BME280;4358;42.100;25.222;2024-03-22T06:19:53;100522.81;;;8.80;100.00
8641;BME280;4358;42.100;25.222;2024-03-22T06:22:18;100526.88;;;8.87;100.00
8641;BME280;4358;42.100;25.222;2024-03-22T06:24:46;100519.34;;;8.97;100.00
8641;BME280;4358;42.100;25.222;2024-03-22T06:27:12;100531.56;;;9.16;100.00
8641;BME280;4358;42.100;25.222;2024-03-22T06:29:40;100533.75;;;9.25;100.00
8641;BME280;4358;42.100;25.222;2024-03-22T06:32:06;100538.56;;;9.34;100.00
8641;BME280;4358;42.100;25.222;2024-03-22T06:34:33;100534.94;;;9.53;100.00
8641;BME280;4358;42.100;25.222;2024-03-22T06:36:59;100541.94;;;9.71;100.00
8641;BME280;4358;42.100;25.222;2024-03-22T06:39:26;100541.00;;;9.72;100.00
8641;BME280;4358;42.100;25.222;2024-03-22T06:41:53;100539.84;;;9.93;100.00
8641;BME280;4358;42.100;25.222;2024-03-22T06:44:20;100535.44;;;10.09;100.00
8641;BME280;4358;42.100;25.222;2024-03-22T06:46:46;100541.78;;;10.23;100.00
8641;BME280;4358;42.100;25.222;2024-03-22T06:49:12;100547.38;;;10.34;100.00
8641;BME280;4358;42.100;25.222;2024-03-22T06:51:38;100551.47;;;10.24;100.00
8641;BME280;4358;42.100;25.222;2024-03-22T06:54:05;100554.97;;;10.40;100.00
8641;BME280;4358;42.100;25.222;2024-03-22T06:56:31;100563.69;;;10.42;100.00
8641;BME280;4358;42.100;25.222;2024-03-22T06:58:59;100556.94;;;10.20;100.00
8641;BME280;4358;42.100;25.222;2024-03-22T07:01:25;100551.50;;;10.06;100.00
8641;BME280;4358;42.100;25.222;2024-03-22T07:03:52;100552.44;;;10.05;100.00
8641;BME280;4358;42.100;25.222;2024-03-22T07:06:18;100554.44;;;10.17;100.00
8641;BME280;4358;42.100;25.222;2024-03-22T07:08:46;100556.16;;;10.18;100.00
8641;BME280;4358;42.100;25.222;2024-03-22T07:11:11;100562.47;;;10.16;100.00
8641;BME280;4358;42.100;25.222;2024-03-22T07:13:38;100567.06;;;10.30;100.00
8641;BME280;4358;42.100;25.222;2024-03-22T07:16:06;100565.53;;;10.41;100.00
8641;BME280;4358;42.100;25.222;2024-03-22T07:18:32;100564.56;;;10.58;100.00
8641;BME280;4358;42.100;25.222;2024-03-22T07:20:58;100569.44;;;10.66;100.00
8641;BME280;4358;42.100;25.222;2024-03-22T07:23:26;100565.16;;;10.63;100.00
8641;BME280;4358;42.100;25.222;2024-03-22T07:25:52;100569.56;;;10.78;100.00
8641;BME280;4358;42.100;25.222;2024-03-22T07:28:19;100575.75;;;10.79;100.00
8641;BME280;4358;42.100;25.222;2024-03-22T07:30:45;100580.13;;;10.64;100.00
8641;BME280;4358;42.100;25.222;2024-03-22T07:33:14;100577.91;;;10.88;100.00
8641;BME280;4358;42.100;25.222;2024-03-22T07:35:42;100580.47;;;10.74;100.00
8641;BME280;4358;42.100;25.222;2024-03-22T07:38:11;100579.16;;;10.96;100.00
8641;BME280;4358;42.100;25.222;2024-03-22T07:40:37;100575.34;;;11.16;100.00
8641;BME280;4358;42.100;25.222;2024-03-22T07:43:04;100575.13;;;11.35;100.00
8641;BME280;4358;42.100;25.222;2024-03-22T07:45:32;100568.47;;;11.42;100.00
8641;BME280;4358;42.100;25.222;2024-03-22T07:47:59;100560.22;;;11.46;100.00
8641;BME280;4358;42.100;25.222;2024-03-22T07:50:26;100562.63;;;11.51;100.00
8641;BME280;4358;42.100;25.222;2024-03-22T07:52:53;100569.53;;;11.54;100.00
8641;BME280;4358;42.100;25.222;2024-03-22T07:55:19;100565.28;;;11.51;100.00
8641;BME280;4358;42.100;25.222;2024-03-22T07:57:45;100566.03;;;11.53;100.00
8641;BME280;4358;42.100;25.222;2024-03-22T08:00:12;100562.63;;;11.51;100.00
8641;BME280;4358;42.100;25.222;2024-03-22T08:02:39;100556.81;;;11.30;100.00
8641;BME280;4358;42.100;25.222;2024-03-22T08:05:06;100560.84;;;11.36;100.00
8641;BME280;4358;42.100;25.222;2024-03-22T08:07:34;100557.41;;;11.64;100.00
8641;BME280;4358;42.100;25.222;2024-03-22T08:10:00;100551.44;;;11.60;100.00
8641;BME280;4358;42.100;25.222;2024-03-22T08:12:27;100560.22;;;11.91;100.00
8641;BME280;4358;42.100;25.222;2024-03-22T08:14:53;100561.56;;;11.98;100.00
8641;BME280;4358;42.100;25.222;2024-03-22T08:17:21;100559.56;;;11.87;100.00
8641;BME280;4358;42.100;25.222;2024-03-22T08:19:46;100566.66;;;12.01;100.00
8641;BME280;4358;42.100;25.222;2024-03-22T08:22:13;100560.84;;;12.22;99.81
8641;BME280;4358;42.100;25.222;2024-03-22T08:24:40;100568.81;;;12.37;98.37
8641;BME280;4358;42.100;25.222;2024-03-22T08:27:07;100560.72;;;12.38;98.01
8641;BME280;4358;42.100;25.222;2024-03-22T08:29:33;100568.00;;;12.63;97.43
8641;BME280;4358;42.100;25.222;2024-03-22T08:32:00;100565.19;;;12.79;95.73
8641;BME280;4358;42.100;25.222;2024-03-22T08:34:29;100558.66;;;12.97;95.01
8641;BME280;4358;42.100;25.222;2024-03-22T08:36:57;100564.50;;;13.16;93.83
8641;BME280;4358;42.100;25.222;2024-03-22T08:39:23;100565.25;;;13.18;91.43
8641;BME280;4358;42.100;25.222;2024-03-22T08:41:52;100549.94;;;13.34;88.28
8641;BME280;4358;42.100;25.222;2024-03-22T08:44:18;100552.78;;;13.31;90.42
8641;BME280;4358;42.100;25.222;2024-03-22T08:46:44;100543.06;;;13.18;90.40
8641;BME280;4358;42.100;25.222;2024-03-22T08:49:11;100549.34;;;13.17;89.07
8641;BME280;4358;42.100;25.222;2024-03-22T08:51:38;100555.16;;;13.48;87.83
8641;BME280;4358;42.100;25.222;2024-03-22T08:54:04;100545.34;;;13.62;87.90
8641;BME280;4358;42.100;25.222;2024-03-22T08:56:31;100543.94;;;13.94;87.95
8641;BME280;4358;42.100;25.222;2024-03-22T08:58:58;100539.75;;;14.15;86.72
8641;BME280;4358;42.100;25.222;2024-03-22T09:01:25;100539.31;;;14.34;85.04
8641;BME280;4358;42.100;25.222;2024-03-22T09:03:52;100538.06;;;14.51;85.40
8641;BME280;4358;42.100;25.222;2024-03-22T09:06:19;100524.50;;;14.54;85.05
8641;BME280;4358;42.100;25.222;2024-03-22T09:08:45;100526.78;;;14.71;85.63
8641;BME280;4358;42.100;25.222;2024-03-22T09:11:11;100534.06;;;14.69;84.95
8641;BME280;4358;42.100;25.222;2024-03-22T09:13:38;100530.47;;;14.57;85.66
8641;BME280;4358;42.100;25.222;2024-03-22T09:16:06;100525.47;;;14.53;85.08
8641;BME280;4358;42.100;25.222;2024-03-22T09:18:32;100525.31;;;14.67;84.30
8641;BME280;4358;42.100;25.222;2024-03-22T09:20:59;100520.94;;;14.90;83.92
8641;BME280;4358;42.100;25.222;2024-03-22T09:23:25;100524.97;;;14.71;84.23
8641;BME280;4358;42.100;25.222;2024-03-22T09:25:52;100524.28;;;14.57;84.17
8641;BME280;4358;42.100;25.222;2024-03-22T09:28:17;100527.31;;;14.39;83.75
8641;BME280;4358;42.100;25.222;2024-03-22T09:30:44;100525.53;;;14.64;83.94
8641;BME280;4358;42.100;25.222;2024-03-22T09:33:11;100527.13;;;14.90;84.03
8641;BME280;4358;42.100;25.222;2024-03-22T09:35:38;100513.81;;;15.01;82.44
8641;BME280;4358;42.100;25.222;2024-03-22T09:38:04;100515.19;;;14.83;81.57
8641;BME280;4358;42.100;25.222;2024-03-22T09:40:30;100505.88;;;14.65;83.07
8641;BME280;4358;42.100;25.222;2024-03-22T09:43:01;100511.03;;;14.79;82.50
8641;BME280;4358;42.100;25.222;2024-03-22T09:45:29;100506.78;;;14.53;81.96
8641;BME280;4358;42.100;25.222;2024-03-22T09:47:57;100506.78;;;14.53;81.68
8641;BME280;4358;42.100;25.222;2024-03-22T09:50:26;100505.91;;;14.76;82.51
8641;BME280;4358;42.100;25.222;2024-03-22T09:52:52;100498.22;;;14.95;80.67
8641;BME280;4358;42.100;25.222;2024-03-22T09:55:22;100498.31;;;15.17;80.91
8641;BME280;4358;42.100;25.222;2024-03-22T09:57:48;100498.59;;;15.37;80.63
8641;BME280;4358;42.100;25.222;2024-03-22T10:00:18;100487.78;;;15.49;79.96
8641;BME280;4358;42.100;25.222;2024-03-22T10:02:46;100491.97;;;15.64;78.36
8641;BME280;4358;42.100;25.222;2024-03-22T10:05:13;100480.53;;;15.74;79.03
8641;BME280;4358;42.100;25.222;2024-03-22T10:07:40;100486.38;;;15.67;78.43
8641;BME280;4358;42.100;25.222;2024-03-22T10:10:08;100487.91;;;15.37;78.46
8641;BME280;4358;42.100;25.222;2024-03-22T10:12:34;100479.59;;;15.28;79.52
8641;BME280;4358;42.100;25.222;2024-03-22T10:15:01;100485.59;;;15.32;76.46
8641;BME280;4358;42.100;25.222;2024-03-22T10:17:27;100481.03;;;15.10;74.19
8641;BME280;4358;42.100;25.222;2024-03-22T10:19:55;100483.78;;;14.98;73.09
8641;BME280;4358;42.100;25.222;2024-03-22T10:22:21;100473.53;;;14.92;73.90
8641;BME280;4358;42.100;25.222;2024-03-22T10:24:51;100469.09;;;15.03;73.08
8641;BME280;4358;42.100;25.222;2024-03-22T10:27:18;100464.53;;;15.27;70.92
8641;BME280;4358;42.100;25.222;2024-03-22T10:29:45;100468.22;;;15.38;59.58
8641;BME280;4358;42.100;25.222;2024-03-22T10:32:12;100462.22;;;15.34;53.50
8641;BME280;4358;42.100;25.222;2024-03-22T10:34:41;100456.53;;;15.27;53.89
8641;BME280;4358;42.100;25.222;2024-03-22T10:37:10;100449.94;;;15.20;52.29
8641;BME280;4358;42.100;25.222;2024-03-22T10:39:40;100449.34;;;15.17;51.86
8641;BME280;4358;42.100;25.222;2024-03-22T10:42:07;100437.63;;;15.18;52.60
8641;BME280;4358;42.100;25.222;2024-03-22T10:44:34;100435.38;;;15.47;50.64
8641;BME280;4358;42.100;25.222;2024-03-22T10:47:01;100435.28;;;15.82;48.75
8641;BME280;4358;42.100;25.222;2024-03-22T10:49:29;100433.41;;;16.16;48.79
8641;BME280;4358;42.100;25.222;2024-03-22T10:51:58;100428.22;;;16.35;50.87
8641;BME280;4358;42.100;25.222;2024-03-22T10:54:30;100421.09;;;16.56;49.93
8641;BME280;4358;42.100;25.222;2024-03-22T10:56:57;100421.38;;;16.53;50.71
8641;BME280;4358;42.100;25.222;2024-03-22T10:59:26;100419.44;;;16.76;50.68
8641;BME280;4358;42.100;25.222;2024-03-22T11:01:52;100414.09;;;16.76;48.47
8641;BME280;4358;42.100;25.222;2024-03-22T11:04:20;100408.03;;;16.74;50.19
8641;BME280;4358;42.100;25.222;2024-03-22T11:06:48;100410.31;;;16.78;50.63
8641;BME280;4358;42.100;25.222;2024-03-22T11:09:20;100405.97;;;16.66;49.96
8641;BME280;4358;42.100;25.222;2024-03-22T11:11:46;100407.69;;;16.67;49.29
8641;BME280;4358;42.100;25.222;2024-03-22T11:14:13;100402.91;;;16.71;48.74
8641;BME280;4358;42.100;25.222;2024-03-22T11:16:43;100397.94;;;16.87;48.77
8641;BME280;4358;42.100;25.222;2024-03-22T11:19:10;100389.56;;;17.01;47.33
8641;BME280;4358;42.100;25.222;2024-03-22T11:21:37;100380.38;;;17.24;46.63
8641;BME280;4358;42.100;25.222;2024-03-22T11:24:05;100383.81;;;17.26;47.08
8641;BME280;4358;42.100;25.222;2024-03-22T11:26:31;100368.50;;;16.97;48.49
8641;BME280;4358;42.100;25.222;2024-03-22T11:28:58;100360.28;;;16.68;48.46
8641;BME280;4358;42.100;25.222;2024-03-22T11:31:24;100374.31;;;16.60;49.55
8641;BME280;4358;42.100;25.222;2024-03-22T11:33:54;100368.25;;;16.58;49.41
8641;BME280;4358;42.100;25.222;2024-03-22T11:36:20;100364.88;;;16.45;50.02
8641;BME280;4358;42.100;25.222;2024-03-22T11:38:47;100369.69;;;16.62;47.63
8641;BME280;4358;42.100;25.222;2024-03-22T11:41:16;100362.41;;;16.53;48.60
8641;BME280;4358;42.100;25.222;2024-03-22T11:43:44;100359.00;;;16.51;48.03
8641;BME280;4358;42.100;25.222;2024-03-22T11:46:11;100347.94;;;16.76;47.76
8641;BME280;4358;42.100;25.222;2024-03-22T11:48:39;100343.75;;;16.83;47.34
8641;BME280;4358;42.100;25.222;2024-03-22T11:51:08;100341.13;;;16.72;47.47
8641;BME280;4358;42.100;25.222;2024-03-22T11:53:35;100340.47;;;16.59;45.58
8641;BME280;4358;42.100;25.222;2024-03-22T11:56:02;100339.50;;;16.60;46.35
8641;BME280;4358;42.100;25.222;2024-03-22T11:58:29;100344.28;;;16.45;45.82
8641;BME280;4358;42.100;25.222;2024-03-22T12:00:56;100341.72;;;16.44;46.35
8641;BME280;4358;42.100;25.222;2024-03-22T12:03:22;100329.38;;;16.84;45.34
8641;BME280;4358;42.100;25.222;2024-03-22T12:05:49;100330.28;;;17.25;44.89
8641;BME280;4358;42.100;25.222;2024-03-22T12:08:18;100318.34;;;17.48;44.25
8641;BME280;4358;42.100;25.222;2024-03-22T12:10:44;100317.78;;;17.54;44.86
8641;BME280;4358;42.100;25.222;2024-03-22T12:13:10;100279.03;;;17.28;45.26
8641;BME280;4358;42.100;25.222;2024-03-22T12:15:37;100309.16;;;17.41;45.57
8641;BME280;4358;42.100;25.222;2024-03-22T12:18:03;100309.53;;;17.27;46.15
8641;BME280;4358;42.100;25.222;2024-03-22T12:20:30;100303.59;;;17.33;44.94
8641;BME280;4358;42.100;25.222;2024-03-22T12:22:56;100298.84;;;17.36;44.51
8641;BME280;4358;42.100;25.222;2024-03-22T12:25:24;100295.56;;;17.33;44.09
8641;BME280;4358;42.100;25.222;2024-03-22T12:27:50;100291.16;;;17.22;44.49
8641;BME280;4358;42.100;25.222;2024-03-22T12:30:16;100286.59;;;17.53;44.79
8641;BME280;4358;42.100;25.222;2024-03-22T12:32:43;100275.63;;;17.75;45.15
8641;BME280;4358;42.100;25.222;2024-03-22T12:35:09;100285.56;;;17.45;44.02
8641;BME280;4358;42.100;25.222;2024-03-22T12:37:36;100274.91;;;17.64;43.68
8641;BME280;4358;42.100;25.222;2024-03-22T12:40:04;100275.75;;;17.64;44.66
8641;BME280;4358;42.100;25.222;2024-03-22T12:42:31;100272.72;;;17.48;43.32
8641;BME280;4358;42.100;25.222;2024-03-22T12:44:58;100283.13;;;16.92;43.02
8641;BME280;4358;42.100;25.222;2024-03-22T12:47:24;100272.84;;;16.97;43.24
8641;BME280;4358;42.100;25.222;2024-03-22T12:49:51;100273.00;;;16.96;42.39
8641;BME280;4358;42.100;25.222;2024-03-22T12:52:17;100264.28;;;17.13;42.59
8641;BME280;4358;42.100;25.222;2024-03-22T12:54:43;100263.28;;;17.54;42.23
8641;BME280;4358;42.100;25.222;2024-03-22T12:57:09;100263.91;;;17.86;42.10